sensor_id;sensor_type;location;lat;lon;timestamp;P1;durP1;ratioP1;P2;durP2;ratioP2
10497;SDS011;5296;51.060;13.750;2023-02-13T00:03:20;16.20;;;13.43;;
10497;SDS011;5296;51.060;13.750;2023-02-13T00:08:22;16.48;;;13.80;;
10497;SDS011;5296;51.060;13.750;2023-02-13T00:13:24;15.70;;;13.40;;
10497;SDS011;5296;51.060;13.750;2023-02-13T00:18:26;17.15;;;14.45;;
10497;SDS011;5296;51.060;13.750;2023-02-13T00:23:28;17.48;;;14.77;;
10497;SDS011;5296;51.060;13.750;2023-02-13T00:28:31;15.82;;;13.20;;
10497;SDS011;5296;51.060;13.750;2023-02-13T00:33:35;15.70;;;14.02;;
10497;SDS011;5296;51.060;13.750;2023-02-13T00:38:37;16.17;;;13.57;;
10497;SDS011;5296;51.060;13.750;2023-02-13T00:43:39;16.98;;;14.57;;
10497;SDS011;5296;51.060;13.750;2023-02-13T00:48:41;15.93;;;14.18;;
10497;SDS011;5296;51.060;13.750;2023-02-13T00:53:43;17.13;;;13.73;;
10497;SDS011;5296;51.060;13.750;2023-02-13T00:58:45;16.65;;;14.00;;
10497;SDS011;5296;51.060;13.750;2023-02-13T01:03:47;15.40;;;12.93;;
10497;SDS011;5296;51.060;13.750;2023-02-13T01:08:48;14.93;;;13.07;;
10497;SDS011;5296;51.060;13.750;2023-02-13T01:13:50;15.68;;;13.95;;
10497;SDS011;5296;51.060;13.750;2023-02-13T01:18:53;16.85;;;13.32;;
10497;SDS011;5296;51.060;13.750;2023-02-13T01:23:56;16.15;;;13.80;;
10497;SDS011;5296;51.060;13.750;2023-02-13T01:28:58;15.98;;;13.07;;
10497;SDS011;5296;51.060;13.750;2023-02-13T01:33:59;15.50;;;12.88;;
10497;SDS011;5296;51.060;13.750;2023-02-13T01:39:01;15.45;;;13.02;;
10497;SDS011;5296;51.060;13.750;2023-02-13T01:49:43;16.25;;;13.65;;
10497;SDS011;5296;51.060;13.750;2023-02-13T01:54:46;16.23;;;13.63;;
10497;SDS011;5296;51.060;13.750;2023-02-13T01:59:51;17.88;;;14.35;;
10497;SDS011;5296;51.060;13.750;2023-02-13T02:05:01;18.20;;;13.63;;
10497;SDS011;5296;51.060;13.750;2023-02-13T02:10:04;17.30;;;14.07;;
10497;SDS011;5296;51.060;13.750;2023-02-13T02:15:11;18.10;;;14.35;;
10497;SDS011;5296;51.060;13.750;2023-02-13T02:25:39;15.82;;;13.07;;
10497;SDS011;5296;51.060;13.750;2023-02-13T02:52:30;19.38;;;14.32;;
10497;SDS011;5296;51.060;13.750;2023-02-13T02:58:27;20.53;;;14.60;;
10497;SDS011;5296;51.060;13.750;2023-02-13T03:03:31;24.92;;;15.10;;
10497;SDS011;5296;51.060;13.750;2023-02-13T03:09:00;26.33;;;15.05;;
10497;SDS011;5296;51.060;13.750;2023-02-13T03:14:22;26.17;;;15.35;;
10497;SDS011;5296;51.060;13.750;2023-02-13T03:19:42;22.48;;;15.00;;
10497;SDS011;5296;51.060;13.750;2023-02-13T03:41:06;25.35;;;16.13;;
10497;SDS011;5296;51.060;13.750;2023-02-13T03:46:20;23.50;;;15.75;;
10497;SDS011;5296;51.060;13.750;2023-02-13T03:51:26;24.42;;;15.55;;
10497;SDS011;5296;51.060;13.750;2023-02-13T03:56:30;22.92;;;15.88;;
10497;SDS011;5296;51.060;13.750;2023-02-13T04:01:58;25.50;;;15.60;;
10497;SDS011;5296;51.060;13.750;2023-02-13T04:07:02;21.90;;;15.48;;
10497;SDS011;5296;51.060;13.750;2023-02-13T04:12:17;23.85;;;15.35;;
10497;SDS011;5296;51.060;13.750;2023-02-13T04:17:26;24.45;;;14.63;;
10497;SDS011;5296;51.060;13.750;2023-02-13T04:22:31;23.38;;;14.02;;
10497;SDS011;5296;51.060;13.750;2023-02-13T04:27:33;19.67;;;14.00;;
10497;SDS011;5296;51.060;13.750;2023-02-13T04:32:34;18.80;;;13.57;;
10497;SDS011;5296;51.060;13.750;2023-02-13T04:37:36;18.92;;;14.00;;
10497;SDS011;5296;51.060;13.750;2023-02-13T04:42:37;20.92;;;13.30;;
10497;SDS011;5296;51.060;13.750;2023-02-13T04:47:39;19.58;;;14.23;;
10497;SDS011;5296;51.060;13.750;2023-02-13T04:52:41;17.83;;;14.23;;
10497;SDS011;5296;51.060;13.750;2023-02-13T04:57:42;16.45;;;12.82;;
10497;SDS011;5296;51.060;13.750;2023-02-13T05:02:44;17.20;;;12.32;;
10497;SDS011;5296;51.060;13.750;2023-02-13T05:07:45;18.27;;;13.50;;
10497;SDS011;5296;51.060;13.750;2023-02-13T05:12:47;15.45;;;12.27;;
10497;SDS011;5296;51.060;13.750;2023-02-13T05:17:49;16.90;;;12.38;;
10497;SDS011;5296;51.060;13.750;2023-02-13T05:22:52;14.52;;;12.02;;
10497;SDS011;5296;51.060;13.750;2023-02-13T05:28:13;14.93;;;12.20;;
10497;SDS011;5296;51.060;13.750;2023-02-13T05:33:33;15.35;;;13.18;;
10497;SDS011;5296;51.060;13.750;2023-02-13T05:38:35;15.23;;;12.10;;
10497;SDS011;5296;51.060;13.750;2023-02-13T05:43:36;15.65;;;12.13;;
10497;SDS011;5296;51.060;13.750;2023-02-13T05:48:38;14.63;;;11.82;;
10497;SDS011;5296;51.060;13.750;2023-02-13T05:53:39;16.40;;;12.80;;
10497;SDS011;5296;51.060;13.750;2023-02-13T05:58:41;13.77;;;11.18;;
10497;SDS011;5296;51.060;13.750;2023-02-13T06:03:43;16.15;;;12.65;;
10497;SDS011;5296;51.060;13.750;2023-02-13T06:08:44;14.95;;;11.73;;
10497;SDS011;5296;51.060;13.750;2023-02-13T06:13:46;16.38;;;12.65;;
10497;SDS011;5296;51.060;13.750;2023-02-13T06:18:47;17.48;;;11.50;;
10497;SDS011;5296;51.060;13.750;2023-02-13T06:23:49;17.88;;;12.77;;
10497;SDS011;5296;51.060;13.750;2023-02-13T06:28:51;17.37;;;13.17;;
10497;SDS011;5296;51.060;13.750;2023-02-13T06:33:52;19.80;;;13.05;;
10497;SDS011;5296;51.060;13.750;2023-02-13T06:38:54;18.88;;;13.18;;
10497;SDS011;5296;51.060;13.750;2023-02-13T06:43:56;16.67;;;13.15;;
10497;SDS011;5296;51.060;13.750;2023-02-13T06:48:57;19.88;;;13.95;;
10497;SDS011;5296;51.060;13.750;2023-02-13T06:53:59;18.63;;;12.75;;
10497;SDS011;5296;51.060;13.750;2023-02-13T06:59:00;20.88;;;13.43;;
10497;SDS011;5296;51.060;13.750;2023-02-13T07:04:02;21.92;;;14.02;;
10497;SDS011;5296;51.060;13.750;2023-02-13T07:09:04;19.40;;;13.90;;
10497;SDS011;5296;51.060;13.750;2023-02-13T07:14:05;19.27;;;13.23;;
10497;SDS011;5296;51.060;13.750;2023-02-13T07:19:07;18.88;;;13.45;;
10497;SDS011;5296;51.060;13.750;2023-02-13T07:24:09;19.13;;;12.85;;
10497;SDS011;5296;51.060;13.750;2023-02-13T07:29:11;21.05;;;13.77;;
10497;SDS011;5296;51.060;13.750;2023-02-13T07:34:12;22.75;;;13.20;;
10497;SDS011;5296;51.060;13.750;2023-02-13T07:39:14;25.25;;;15.13;;
10497;SDS011;5296;51.060;13.750;2023-02-13T07:44:16;21.02;;;13.60;;
10497;SDS011;5296;51.060;13.750;2023-02-13T07:49:17;25.80;;;14.20;;
10497;SDS011;5296;51.060;13.750;2023-02-13T07:54:19;22.23;;;14.18;;
10497;SDS011;5296;51.060;13.750;2023-02-13T07:59:20;20.08;;;13.18;;
10497;SDS011;5296;51.060;13.750;2023-02-13T08:04:22;23.77;;;14.95;;
10497;SDS011;5296;51.060;13.750;2023-02-13T08:09:26;23.33;;;14.38;;
10497;SDS011;5296;51.060;13.750;2023-02-13T08:14:46;22.50;;;15.23;;
10497;SDS011;5296;51.060;13.750;2023-02-13T08:19:48;24.70;;;15.48;;
10497;SDS011;5296;51.060;13.750;2023-02-13T08:24:49;21.27;;;13.88;;
10497;SDS011;5296;51.060;13.750;2023-02-13T08:29:51;25.88;;;14.68;;
10497;SDS011;5296;51.060;13.750;2023-02-13T08:34:53;22.67;;;15.05;;
10497;SDS011;5296;51.060;13.750;2023-02-13T08:39:54;20.05;;;13.73;;
10497;SDS011;5296;51.060;13.750;2023-02-13T08:44:56;17.13;;;11.90;;
10497;SDS011;5296;51.060;13.750;2023-02-13T08:49:59;16.55;;;11.55;;
10497;SDS011;5296;51.060;13.750;2023-02-13T08:55:00;19.80;;;12.32;;
10497;SDS011;5296;51.060;13.750;2023-02-13T09:00:03;15.00;;;11.88;;
10497;SDS011;5296;51.060;13.750;2023-02-13T09:05:06;16.10;;;11.98;;
10497;SDS011;5296;51.060;13.750;2023-02-13T09:10:08;15.70;;;11.57;;
10497;SDS011;5296;51.060;13.750;2023-02-13T09:15:09;18.52;;;12.63;;
10497;SDS011;5296;51.060;13.750;2023-02-13T09:20:11;19.23;;;12.50;;
10497;SDS011;5296;51.060;13.750;2023-02-13T09:25:14;19.58;;;13.52;;
10497;SDS011;5296;51.060;13.750;2023-02-13T09:30:15;15.93;;;10.65;;
10497;SDS011;5296;51.060;13.750;2023-02-13T09:35:23;16.90;;;11.55;;
10497;SDS011;5296;51.060;13.750;2023-02-13T09:40:29;17.67;;;11.38;;
10497;SDS011;5296;51.060;13.750;2023-02-13T09:45:35;17.45;;;12.10;;
10497;SDS011;5296;51.060;13.750;2023-02-13T09:50:37;14.38;;;10.95;;
10497;SDS011;5296;51.060;13.750;2023-02-13T09:55:45;14.73;;;11.45;;
10497;SDS011;5296;51.060;13.750;2023-02-13T10:00:54;15.27;;;11.95;;
10497;SDS011;5296;51.060;13.750;2023-02-13T10:06:10;17.17;;;12.05;;
10497;SDS011;5296;51.060;13.750;2023-02-13T10:11:39;15.88;;;11.60;;
10497;SDS011;5296;51.060;13.750;2023-02-13T10:17:01;16.67;;;11.00;;
10497;SDS011;5296;51.060;13.750;2023-02-13T10:22:16;15.90;;;11.38;;
10497;SDS011;5296;51.060;13.750;2023-02-13T10:32:27;14.68;;;11.20;;
10497;SDS011;5296;51.060;13.750;2023-02-13T10:37:32;14.50;;;11.10;;
10497;SDS011;5296;51.060;13.750;2023-02-13T10:42:45;15.02;;;11.13;;
10497;SDS011;5296;51.060;13.750;2023-02-13T10:47:59;12.32;;;10.23;;
10497;SDS011;5296;51.060;13.750;2023-02-13T10:53:10;10.02;;;8.75;;
10497;SDS011;5296;51.060;13.750;2023-02-13T10:58:29;11.10;;;9.45;;
10497;SDS011;5296;51.060;13.750;2023-02-13T11:03:39;10.15;;;8.40;;
10497;SDS011;5296;51.060;13.750;2023-02-13T11:08:42;13.88;;;8.70;;
10497;SDS011;5296;51.060;13.750;2023-02-13T11:13:47;9.32;;;7.68;;
10497;SDS011;5296;51.060;13.750;2023-02-13T11:19:14;10.63;;;8.68;;
10497;SDS011;5296;51.060;13.750;2023-02-13T11:24:20;9.38;;;7.25;;
10497;SDS011;5296;51.060;13.750;2023-02-13T11:29:30;8.23;;;7.38;;
10497;SDS011;5296;51.060;13.750;2023-02-13T11:34:32;8.13;;;7.32;;
10497;SDS011;5296;51.060;13.750;2023-02-13T11:39:34;8.15;;;7.35;;
10497;SDS011;5296;51.060;13.750;2023-02-13T11:44:36;9.68;;;7.88;;
10497;SDS011;5296;51.060;13.750;2023-02-13T11:49:38;9.88;;;7.25;;
10497;SDS011;5296;51.060;13.750;2023-02-13T11:54:46;9.25;;;7.75;;
10497;SDS011;5296;51.060;13.750;2023-02-13T12:00:00;9.20;;;7.82;;
10497;SDS011;5296;51.060;13.750;2023-02-13T12:05:24;8.60;;;7.75;;
10497;SDS011;5296;51.060;13.750;2023-02-13T12:10:28;9.75;;;8.20;;
10497;SDS011;5296;51.060;13.750;2023-02-13T12:15:31;8.35;;;7.55;;
10497;SDS011;5296;51.060;13.750;2023-02-13T12:20:42;8.27;;;7.57;;
10497;SDS011;5296;51.060;13.750;2023-02-13T12:31:28;12.68;;;10.35;;
10497;SDS011;5296;51.060;13.750;2023-02-13T12:53:16;7.60;;;6.88;;
10497;SDS011;5296;51.060;13.750;2023-02-13T12:58:39;6.85;;;6.25;;
10497;SDS011;5296;51.060;13.750;2023-02-13T13:14:55;6.07;;;5.35;;
10497;SDS011;5296;51.060;13.750;2023-02-13T13:20:21;5.95;;;5.45;;
10497;SDS011;5296;51.060;13.750;2023-02-13T13:25:42;5.90;;;5.30;;
10497;SDS011;5296;51.060;13.750;2023-02-13T13:31:02;6.13;;;5.50;;
10497;SDS011;5296;51.060;13.750;2023-02-13T13:41:27;6.30;;;5.70;;
10497;SDS011;5296;51.060;13.750;2023-02-13T13:46:40;6.95;;;5.47;;
10497;SDS011;5296;51.060;13.750;2023-02-13T13:51:45;5.57;;;5.07;;
10497;SDS011;5296;51.060;13.750;2023-02-13T14:07:22;5.50;;;5.00;;
10497;SDS011;5296;51.060;13.750;2023-02-13T14:22:45;8.02;;;5.65;;
10497;SDS011;5296;51.060;13.750;2023-02-13T14:27:54;6.47;;;5.88;;
10497;SDS011;5296;51.060;13.750;2023-02-13T14:33:06;6.95;;;6.30;;
10497;SDS011;5296;51.060;13.750;2023-02-13T14:38:19;7.22;;;6.40;;
10497;SDS011;5296;51.060;13.750;2023-02-13T14:43:29;9.07;;;7.20;;
10497;SDS011;5296;51.060;13.750;2023-02-13T14:48:39;8.20;;;7.40;;
10497;SDS011;5296;51.060;13.750;2023-02-13T14:53:51;8.25;;;7.45;;
10497;SDS011;5296;51.060;13.750;2023-02-13T14:59:01;10.27;;;8.05;;
10497;SDS011;5296;51.060;13.750;2023-02-13T15:09:37;12.13;;;7.93;;
10497;SDS011;5296;51.060;13.750;2023-02-13T15:14:40;8.38;;;7.57;;
10497;SDS011;5296;51.060;13.750;2023-02-13T15:19:42;9.90;;;8.23;;
10497;SDS011;5296;51.060;13.750;2023-02-13T15:24:46;8.93;;;8.02;;
10497;SDS011;5296;51.060;13.750;2023-02-13T15:29:56;10.30;;;8.05;;
10497;SDS011;5296;51.060;13.750;2023-02-13T15:34:58;9.57;;;8.57;;
10497;SDS011;5296;51.060;13.750;2023-02-13T15:40:18;10.52;;;8.85;;
10497;SDS011;5296;51.060;13.750;2023-02-13T15:45:27;10.02;;;8.88;;
10497;SDS011;5296;51.060;13.750;2023-02-13T15:50:32;9.73;;;8.73;;
10497;SDS011;5296;51.060;13.750;2023-02-13T15:55:35;10.23;;;9.05;;
10497;SDS011;5296;51.060;13.750;2023-02-13T16:00:40;11.27;;;9.85;;
10497;SDS011;5296;51.060;13.750;2023-02-13T16:05:44;11.65;;;9.27;;
10497;SDS011;5296;51.060;13.750;2023-02-13T16:10:46;10.32;;;9.15;;
10497;SDS011;5296;51.060;13.750;2023-02-13T16:15:48;11.50;;;10.30;;
10497;SDS011;5296;51.060;13.750;2023-02-13T16:20:53;11.82;;;10.25;;
10497;SDS011;5296;51.060;13.750;2023-02-13T16:26:00;11.55;;;10.00;;
10497;SDS011;5296;51.060;13.750;2023-02-13T16:31:03;10.90;;;9.25;;
10497;SDS011;5296;51.060;13.750;2023-02-13T16:46:19;10.82;;;9.75;;
10497;SDS011;5296;51.060;13.750;2023-02-13T16:56:40;11.20;;;10.00;;
10497;SDS011;5296;51.060;13.750;2023-02-13T17:01:45;11.40;;;10.10;;
10497;SDS011;5296;51.060;13.750;2023-02-13T17:06:46;12.90;;;10.75;;
10497;SDS011;5296;51.060;13.750;2023-02-13T17:11:48;11.10;;;9.88;;
10497;SDS011;5296;51.060;13.750;2023-02-13T17:16:51;12.68;;;11.38;;
10497;SDS011;5296;51.060;13.750;2023-02-13T17:21:53;13.60;;;11.30;;
10497;SDS011;5296;51.060;13.750;2023-02-13T17:26:55;13.10;;;11.65;;
10497;SDS011;5296;51.060;13.750;2023-02-13T17:31:57;12.93;;;11.23;;
10497;SDS011;5296;51.060;13.750;2023-02-13T17:36:59;13.10;;;11.75;;
10497;SDS011;5296;51.060;13.750;2023-02-13T17:42:00;12.38;;;11.18;;
10497;SDS011;5296;51.060;13.750;2023-02-13T17:47:03;13.38;;;11.98;;
10497;SDS011;5296;51.060;13.750;2023-02-13T17:52:04;13.40;;;11.98;;
10497;SDS011;5296;51.060;13.750;2023-02-13T17:57:06;13.20;;;11.90;;
10497;SDS011;5296;51.060;13.750;2023-02-13T18:02:09;14.00;;;12.55;;
10497;SDS011;5296;51.060;13.750;2023-02-13T18:07:14;13.68;;;12.27;;
10497;SDS011;5296;51.060;13.750;2023-02-13T18:12:21;13.20;;;11.77;;
10497;SDS011;5296;51.060;13.750;2023-02-13T18:17:24;15.30;;;12.05;;
10497;SDS011;5296;51.060;13.750;2023-02-13T18:22:26;14.00;;;12.50;;
10497;SDS011;5296;51.060;13.750;2023-02-13T18:27:27;13.75;;;12.27;;
10497;SDS011;5296;51.060;13.750;2023-02-13T18:32:29;13.73;;;12.23;;
10497;SDS011;5296;51.060;13.750;2023-02-13T18:37:30;13.85;;;12.23;;
10497;SDS011;5296;51.060;13.750;2023-02-13T18:42:33;13.27;;;11.88;;
10497;SDS011;5296;51.060;13.750;2023-02-13T18:47:36;13.95;;;12.45;;
10497;SDS011;5296;51.060;13.750;2023-02-13T18:52:37;14.95;;;13.35;;
10497;SDS011;5296;51.060;13.750;2023-02-13T18:57:39;14.68;;;13.18;;
10497;SDS011;5296;51.060;13.750;2023-02-13T19:02:43;15.13;;;12.90;;
10497;SDS011;5296;51.060;13.750;2023-02-13T19:07:45;14.77;;;13.18;;
10497;SDS011;5296;51.060;13.750;2023-02-13T19:12:47;16.70;;;13.55;;
10497;SDS011;5296;51.060;13.750;2023-02-13T19:17:48;17.08;;;14.00;;
10497;SDS011;5296;51.060;13.750;2023-02-13T19:22:50;16.02;;;13.98;;
10497;SDS011;5296;51.060;13.750;2023-02-13T19:27:52;16.00;;;13.70;;
10497;SDS011;5296;51.060;13.750;2023-02-13T19:32:53;17.42;;;14.60;;
10497;SDS011;5296;51.060;13.750;2023-02-13T19:37:55;15.70;;;13.82;;
10497;SDS011;5296;51.060;13.750;2023-02-13T19:42:56;17.38;;;15.13;;
10497;SDS011;5296;51.060;13.750;2023-02-13T19:47:58;18.38;;;14.93;;
10497;SDS011;5296;51.060;13.750;2023-02-13T19:52:59;17.23;;;14.63;;
10497;SDS011;5296;51.060;13.750;2023-02-13T19:58:04;19.42;;;14.68;;
10497;SDS011;5296;51.060;13.750;2023-02-13T20:03:06;18.23;;;14.98;;
10497;SDS011;5296;51.060;13.750;2023-02-13T20:08:07;18.00;;;15.45;;
10497;SDS011;5296;51.060;13.750;2023-02-13T20:13:09;17.67;;;14.93;;
10497;SDS011;5296;51.060;13.750;2023-02-13T20:18:10;20.15;;;15.85;;
10497;SDS011;5296;51.060;13.750;2023-02-13T20:23:12;16.98;;;15.23;;
10497;SDS011;5296;51.060;13.750;2023-02-13T20:28:14;17.67;;;15.45;;
10497;SDS011;5296;51.060;13.750;2023-02-13T20:33:15;20.70;;;16.67;;
10497;SDS011;5296;51.060;13.750;2023-02-13T20:38:17;18.98;;;16.25;;
10497;SDS011;5296;51.060;13.750;2023-02-13T20:43:19;18.90;;;15.40;;
10497;SDS011;5296;51.060;13.750;2023-02-13T20:48:21;16.20;;;14.32;;
10497;SDS011;5296;51.060;13.750;2023-02-13T20:53:22;17.88;;;15.38;;
10497;SDS011;5296;51.060;13.750;2023-02-13T20:58:24;18.48;;;15.43;;
10497;SDS011;5296;51.060;13.750;2023-02-13T21:03:25;17.25;;;15.25;;
10497;SDS011;5296;51.060;13.750;2023-02-13T21:08:27;18.67;;;15.75;;
10497;SDS011;5296;51.060;13.750;2023-02-13T21:13:29;18.80;;;15.23;;
10497;SDS011;5296;51.060;13.750;2023-02-13T21:18:33;16.88;;;14.40;;
10497;SDS011;5296;51.060;13.750;2023-02-13T21:23:36;17.60;;;15.13;;
10497;SDS011;5296;51.060;13.750;2023-02-13T21:28:38;19.33;;;15.82;;
10497;SDS011;5296;51.060;13.750;2023-02-13T21:33:40;19.40;;;15.57;;
10497;SDS011;5296;51.060;13.750;2023-02-13T21:38:41;18.38;;;15.55;;
10497;SDS011;5296;51.060;13.750;2023-02-13T21:43:43;20.40;;;16.35;;
10497;SDS011;5296;51.060;13.750;2023-02-13T21:48:52;20.35;;;16.33;;
10497;SDS011;5296;51.060;13.750;2023-02-13T21:53:55;20.30;;;16.80;;
10497;SDS011;5296;51.060;13.750;2023-02-13T21:58:57;19.38;;;16.35;;
10497;SDS011;5296;51.060;13.750;2023-02-13T22:04:01;19.77;;;16.65;;
10497;SDS011;5296;51.060;13.750;2023-02-13T22:09:08;19.17;;;16.45;;
10497;SDS011;5296;51.060;13.750;2023-02-13T22:14:12;19.63;;;16.75;;
10497;SDS011;5296;51.060;13.750;2023-02-13T22:19:17;20.50;;;17.67;;
10497;SDS011;5296;51.060;13.750;2023-02-13T22:24:20;19.40;;;16.63;;
10497;SDS011;5296;51.060;13.750;2023-02-13T22:29:22;18.95;;;16.42;;
10497;SDS011;5296;51.060;13.750;2023-02-13T22:34:24;20.38;;;16.67;;
10497;SDS011;5296;51.060;13.750;2023-02-13T22:39:25;17.42;;;15.52;;
10497;SDS011;5296;51.060;13.750;2023-02-13T22:44:27;18.58;;;16.13;;
10497;SDS011;5296;51.060;13.750;2023-02-13T22:49:29;19.08;;;16.13;;
10497;SDS011;5296;51.060;13.750;2023-02-13T22:54:30;19.48;;;16.48;;
10497;SDS011;5296;51.060;13.750;2023-02-13T22:59:32;18.40;;;15.23;;
10497;SDS011;5296;51.060;13.750;2023-02-13T23:04:39;19.00;;;16.27;;
10497;SDS011;5296;51.060;13.750;2023-02-13T23:09:41;21.00;;;16.40;;
10497;SDS011;5296;51.060;13.750;2023-02-13T23:14:44;18.48;;;16.20;;
10497;SDS011;5296;51.060;13.750;2023-02-13T23:19:46;18.40;;;15.82;;
10497;SDS011;5296;51.060;13.750;2023-02-13T23:24:47;18.77;;;16.15;;
10497;SDS011;5296;51.060;13.750;2023-02-13T23:29:49;19.00;;;16.00;;
10497;SDS011;5296;51.060;13.750;2023-02-13T23:34:51;18.02;;;16.08;;
10497;SDS011;5296;51.060;13.750;2023-02-13T23:39:52;18.30;;;15.73;;
10497;SDS011;5296;51.060;13.750;2023-02-13T23:44:54;19.90;;;16.25;;
10497;SDS011;5296;51.060;13.750;2023-02-13T23:49:55;19.58;;;16.25;;
10497;SDS011;5296;51.060;13.750;2023-02-13T23:54:57;19.02;;;15.95;;
10497;SDS011;5296;51.060;13.750;2023-02-13T23:59:59;22.00;;;16.98;;
